CDT,Max TemperatureF,Mean TemperatureF,Min TemperatureF,Max Dew PointF,MeanDew PointF,Min DewpointF,Max Humidity, Mean Humidity, Min Humidity, Max Sea Level PressureIn, Mean Sea Level PressureIn, Min Sea Level PressureIn, Max VisibilityMiles, Mean VisibilityMiles, Min VisibilityMiles, Max Wind SpeedMPH, Mean Wind SpeedMPH, Max Gust SpeedMPH,PrecipitationIn, CloudCover, Events, WindDirDegrees
2013-10-1,82,71,60,67,63,59,97,76,54,30.11,30.06,30.03,10,10,5,12,3,16,0.00,5,,193
2013-10-2,74,70,65,70,68,64,100,92,84,30.16,30.11,30.06,10,5,0,12,3,15,1.00,6,Fog-Rain,225
2013-10-3,83,75,67,69,66,63,93,72,51,30.11,30.06,30.00,10,9,2,9,2,13,0.06,5,Rain,150
2013-10-4,84,73,62,70,65,61,93,78,63,30.11,30.07,30.04,10,9,1,15,4,18,0.02,1,,170
2013-10-5,85,76,66,72,68,64,93,77,61,30.06,30.00,29.90,10,10,7,15,6,22,0.01,3,Thunderstorm,191
2013-10-6,75,63,51,68,60,48,93,81,69,29.96,29.87,29.83,10,8,1,16,7,24,0.98,7,Rain-Thunderstorm,230
2013-10-7,66,56,46,48,46,43,93,69,44,30.15,30.04,29.95,10,10,10,12,3,17,0.00,0,,321
2013-10-8,70,57,44,49,46,42,93,67,40,30.22,30.17,30.13,10,10,9,17,5,23,0.00,0,,54
2013-10-9,78,63,47,60,54,45,93,69,45,30.21,30.15,30.12,10,10,10,8,1,14,0.00,1,,58
2013-10-10,79,65,51,59,54,50,100,74,47,30.17,30.13,30.06,10,4,0,12,2,16,0.00,1,Fog,39
2013-10-11,79,63,47,56,50,46,100,70,39,30.12,30.07,30.02,10,3,0,7,0,9,0.00,1,Fog,50
2013-10-12,80,64,48,63,52,46,100,71,42,30.13,30.07,30.04,10,4,0,10,1,14,0.00,0,Fog,270
2013-10-13,79,68,56,63,58,55,100,76,52,30.27,30.19,30.13,10,5,0,10,2,14,T,3,Fog,17
2013-10-14,72,61,50,61,56,47,100,83,66,30.28,30.19,30.13,10,6,0,12,3,14,0.00,0,Fog,79
2013-10-15,75,65,55,61,58,54,100,79,57,30.13,30.07,29.99,10,6,0,16,6,20,T,2,Fog-Rain,193
2013-10-16,68,63,58,63,59,55,100,87,73,30.01,29.98,29.95,10,7,2,10,4,14,0.26,8,Rain,264
2013-10-17,64,54,43,55,48,45,93,77,60,30.04,29.99,29.92,10,7,0,13,3,17,0.18,5,Fog-Rain,316
2013-10-18,67,53,39,50,42,37,100,71,42,30.10,30.04,29.98,10,4,0,9,1,13,0.00,2,Fog,213
2013-10-19,55,46,37,52,45,36,93,78,63,30.09,29.99,29.89,10,9,2,21,4,28,0.13,6,Rain,282
2013-10-20,62,48,34,43,36,32,100,68,36,30.13,30.08,30.04,10,6,0,10,2,15,0.00,0,Fog,207
2013-10-21,70,53,35,50,40,33,100,66,31,30.08,30.03,29.97,10,9,2,15,5,20,T,2,Rain,238
2013-10-22,60,52,44,50,42,33,93,67,40,30.08,29.99,29.86,10,9,5,22,4,28,0.16,4,Rain,268
2013-10-23,51,43,35,46,35,30,86,67,48,30.14,30.01,29.85,10,10,10,17,7,25,0.00,6,,301
2013-10-24,52,41,30,39,32,24,89,70,51,30.38,30.23,30.13,10,10,7,14,3,22,0.00,5,,289
2013-10-25,50,38,26,29,25,22,92,63,34,30.53,30.44,30.35,10,10,10,9,1,14,0.00,0,,330
2013-10-26,57,42,26,41,31,24,92,65,38,30.33,30.20,30.07,10,10,8,21,6,28,0.00,4,,225
2013-10-27,65,51,36,54,43,36,100,78,56,30.13,30.09,30.06,10,8,1,9,2,12,T,4,,203
2013-10-28,64,58,51,57,55,51,100,89,78,30.28,30.19,30.09,10,4,0,8,2,10,0.11,7,Fog-Rain,106
2013-10-29,65,58,51,57,55,51,100,87,73,30.33,30.26,30.16,10,5,0,9,2,10,0.01,6,Fog-Rain,101
2013-10-30,78,69,60,61,58,54,93,71,48,30.19,30.12,30.04,10,9,4,16,8,21,0.16,5,Rain,202
2013-10-31,71,65,59,64,60,54,93,78,63,30.02,29.68,29.52,10,8,1,35,17,47,0.96,7,Rain,201